createdAt,value
2018-04-23T00:01:39.077Z,10.97
2018-04-23T00:04:06.625Z,8.90
2018-04-23T00:06:34.186Z,13.47
2018-04-23T00:09:01.722Z,9.27
2018-04-23T00:11:29.270Z,11.40
2018-04-23T00:13:57.267Z,13.17
2018-04-23T00:16:39.802Z,8.80
2018-04-23T01:13:55.959Z,12.00
2018-04-23T01:16:23.503Z,12.70
2018-04-23T01:19:07.963Z,13.97
2018-04-23T03:20:11.103Z,19.03
2018-04-23T03:25:32.338Z,19.00
2018-04-23T03:28:02.962Z,19.93
2018-04-23T03:30:30.497Z,18.03
2018-04-23T03:32:58.035Z,19.50
2018-04-23T03:35:25.612Z,23.53
2018-04-23T03:37:53.155Z,19.13
2018-04-23T03:40:20.703Z,21.87
2018-04-23T03:42:48.249Z,18.90
2018-04-23T03:45:16.559Z,18.40
2018-04-23T03:47:44.103Z,22.20
2018-04-23T03:50:11.639Z,18.87
2018-04-23T03:52:39.930Z,18.97
2018-04-23T03:55:07.464Z,17.43
2018-04-23T03:57:35.004Z,17.97
2018-04-23T04:00:05.571Z,21.93
2018-04-23T04:02:33.870Z,23.33
2018-04-23T04:05:01.415Z,21.37
2018-04-23T04:07:28.953Z,17.43
2018-04-23T04:09:56.491Z,18.93
2018-04-23T04:15:28.873Z,17.57
2018-04-23T04:20:50.172Z,18.73
2018-04-23T05:14:58.316Z,15.23
2018-04-23T05:17:26.667Z,15.10
2018-04-23T05:19:54.213Z,17.10
2018-04-23T05:22:21.758Z,15.13
2018-04-23T05:24:49.405Z,15.57
2018-04-23T05:27:20.135Z,14.27
2018-04-23T05:29:47.681Z,15.77
2018-04-23T05:32:16.086Z,15.03
2018-04-23T05:34:43.672Z,14.30
2018-04-23T05:37:11.268Z,14.33
2018-04-23T05:39:39.580Z,15.23
2018-04-23T05:42:07.126Z,13.40
2018-04-23T05:44:34.712Z,15.53
2018-04-23T05:47:02.294Z,15.57
2018-04-23T05:49:29.835Z,13.83
2018-04-23T05:51:57.368Z,13.33
2018-04-23T05:54:24.964Z,12.60
2018-04-23T05:56:52.521Z,11.60
2018-04-23T05:59:23.156Z,11.87
2018-04-23T06:01:50.683Z,11.00
2018-04-23T06:04:18.222Z,11.93
2018-04-23T06:06:46.522Z,14.53
2018-04-23T06:09:14.069Z,12.50
2018-04-23T06:11:42.363Z,11.10
2018-04-23T06:14:09.991Z,10.57
2018-04-23T06:16:38.328Z,12.07
2018-04-23T06:25:05.321Z,13.03
2018-04-23T06:27:32.874Z,11.20
2018-04-23T06:30:00.417Z,12.50
2018-04-23T06:32:27.970Z,12.73
2018-04-23T06:34:55.520Z,17.00
2018-04-23T06:37:23.055Z,11.47
2018-04-23T06:39:50.599Z,12.70
2018-04-23T06:42:18.145Z,12.70
2018-04-23T06:44:45.685Z,14.30
2018-04-23T06:47:13.232Z,13.63
2018-04-23T06:49:40.778Z,14.63
2018-04-23T06:52:11.413Z,14.47
2018-04-23T06:54:38.943Z,18.93
2018-04-23T06:57:06.488Z,22.30
2018-04-23T06:59:34.037Z,18.63
2018-04-23T07:02:01.572Z,16.20
2018-04-23T07:04:29.227Z,19.53
2018-04-23T07:06:56.764Z,15.27
2018-04-23T07:09:25.063Z,17.53
2018-04-23T07:11:52.603Z,20.57
2018-04-23T07:20:21.971Z,18.20
2018-04-23T07:23:10.442Z,19.27
2018-04-23T07:25:38.009Z,20.63
2018-04-23T07:28:06.579Z,22.40
2018-04-23T07:30:34.114Z,19.73
2018-04-23T07:33:01.668Z,24.10
2018-04-23T07:35:29.220Z,24.37
2018-04-23T07:37:57.531Z,23.10
2018-04-23T07:40:25.075Z,112.53
2018-04-23T07:42:52.622Z,34.83
2018-04-23T07:45:20.929Z,34.17
2018-04-23T07:47:48.494Z,25.30
2018-04-23T07:50:19.144Z,25.73
2018-04-23T07:52:46.687Z,29.17
2018-04-23T07:55:14.224Z,25.30
2018-04-23T07:57:41.777Z,30.80
2018-04-23T08:00:09.324Z,29.63
2018-04-23T08:02:37.624Z,23.93
2018-04-23T08:05:05.623Z,26.03
2018-04-23T08:07:36.281Z,30.10
2018-04-23T08:10:03.829Z,29.47
2018-04-23T08:12:31.857Z,34.23
2018-04-23T08:17:52.402Z,30.97
2018-04-23T08:20:22.928Z,35.33
2018-04-23T08:26:05.568Z,29.20
2018-04-23T08:28:44.203Z,33.77
2018-04-23T08:56:22.660Z,42.37
2018-04-23T08:58:56.080Z,36.13
2018-04-23T09:01:23.686Z,38.67
2018-04-23T09:03:51.705Z,34.97
2018-04-23T09:06:19.286Z,37.17
2018-04-23T09:08:46.836Z,43.77
2018-04-23T09:11:14.382Z,41.53
2018-04-23T09:13:41.944Z,43.60
2018-04-23T09:16:09.562Z,45.37
2018-04-23T09:18:37.257Z,31.60
2018-04-23T09:24:01.111Z,41.73
2018-04-23T10:15:37.596Z,37.50
2018-04-23T10:18:05.158Z,41.27
2018-04-23T10:28:13.009Z,47.47
2018-04-23T10:30:40.544Z,46.67
2018-04-23T10:33:08.084Z,48.53
2018-04-23T10:35:35.627Z,41.47
2018-04-23T10:38:04.057Z,40.00
2018-04-23T10:40:31.635Z,33.77
2018-04-23T10:42:59.226Z,33.53
2018-04-23T10:45:27.571Z,35.70
2018-04-23T10:47:55.120Z,35.83
2018-04-23T10:50:22.647Z,33.97
2018-04-23T10:52:50.182Z,34.53
2018-04-23T10:55:17.732Z,36.77
2018-04-23T10:57:48.352Z,34.00
2018-04-23T11:00:15.881Z,31.30
2018-04-23T11:02:43.413Z,31.23
2018-04-23T11:05:10.942Z,30.43
2018-04-23T11:07:38.480Z,29.40
2018-04-23T11:10:06.016Z,31.83
2018-04-23T11:12:33.552Z,32.40
2018-04-23T11:15:01.084Z,26.13
2018-04-23T11:17:29.418Z,30.37
2018-04-23T11:19:57.027Z,19.90
2018-04-23T11:22:37.705Z,33.37
2018-04-23T11:28:02.096Z,31.07
2018-04-23T11:30:29.643Z,32.00
2018-04-23T11:32:57.189Z,32.63
2018-04-23T11:35:24.729Z,29.33
2018-04-23T11:37:52.270Z,28.33
2018-04-23T11:40:19.803Z,26.93
2018-04-23T11:42:48.050Z,25.30
2018-04-23T11:45:15.587Z,26.53
2018-04-23T11:47:43.129Z,25.30
2018-04-23T11:50:10.674Z,24.03
2018-04-23T11:52:38.221Z,23.87
2018-04-23T11:55:09.077Z,27.27
2018-04-23T11:57:36.680Z,21.40
2018-04-23T12:00:04.360Z,24.83
2018-04-23T12:02:31.995Z,19.23
2018-04-23T12:04:59.547Z,20.33
2018-04-23T12:07:27.131Z,20.73
2018-04-23T12:09:54.700Z,23.00
2018-04-23T12:12:24.351Z,23.43
2018-04-23T12:26:14.896Z,17.63
2018-04-23T12:28:49.823Z,19.47
2018-04-23T12:31:17.436Z,20.80
2018-04-23T12:33:44.993Z,18.23
2018-04-23T12:36:12.559Z,20.77
2018-04-23T12:38:40.123Z,16.23
2018-04-23T12:41:08.592Z,13.17
2018-04-23T12:43:36.154Z,14.93
2018-04-23T12:46:03.784Z,14.43
2018-04-23T12:48:31.321Z,15.13
2018-04-23T12:51:02.668Z,12.37
2018-04-23T12:53:30.190Z,11.97
2018-04-23T12:55:57.763Z,12.90
2018-04-23T12:58:25.346Z,10.27
2018-04-23T13:00:53.036Z,11.23
2018-04-23T13:03:21.366Z,10.50
2018-04-23T13:05:49.566Z,9.93
2018-04-23T13:08:17.914Z,9.40
2018-04-23T13:10:45.475Z,20.70
2018-04-23T13:13:13.051Z,20.27
2018-04-23T13:27:36.107Z,11.10
2018-04-23T13:30:03.667Z,10.80
2018-04-23T13:32:31.227Z,10.30
2018-04-23T13:34:58.782Z,12.00
2018-04-23T13:37:26.338Z,10.17
2018-04-23T13:39:53.949Z,8.77
2018-04-23T13:42:21.507Z,10.33
2018-04-23T13:44:49.150Z,11.27
2018-04-23T13:47:17.492Z,8.20
2018-04-23T13:49:45.040Z,8.10
2018-04-23T13:52:12.619Z,8.70
2018-04-23T13:54:40.172Z,6.90
2018-04-23T13:57:10.976Z,7.00
2018-04-23T13:59:38.572Z,8.20
2018-04-23T14:02:06.133Z,8.43
2018-04-23T14:04:33.704Z,9.37
2018-04-23T14:07:01.294Z,9.47
2018-04-23T14:09:28.868Z,6.83
2018-04-23T14:11:56.418Z,7.90
2018-04-23T14:20:20.605Z,5.97
2018-04-23T14:22:48.159Z,5.70
2018-04-23T14:25:19.082Z,7.63
2018-04-23T14:27:46.647Z,6.10
2018-04-23T14:30:14.212Z,6.63
2018-04-23T14:32:41.801Z,7.93
2018-04-23T14:35:09.363Z,9.27
2018-04-23T14:37:37.804Z,5.97
2018-04-23T14:40:05.486Z,5.63
2018-04-23T14:42:33.135Z,7.30
2018-04-23T14:45:00.695Z,5.23
2018-04-23T14:47:28.267Z,4.83
2018-04-23T14:49:55.834Z,4.17
2018-04-23T14:52:29.318Z,4.57
2018-04-23T14:54:56.911Z,3.93
2018-04-23T14:57:24.490Z,4.40
2018-04-23T14:59:52.055Z,5.63
2018-04-23T15:02:19.607Z,4.00
2018-04-23T15:04:47.943Z,4.10
2018-04-23T15:07:15.509Z,3.43
2018-04-23T15:09:43.073Z,3.20
2018-04-23T15:12:10.655Z,4.87
2018-04-23T15:17:36.023Z,3.90
2018-04-23T15:20:07.072Z,3.53
2018-04-23T15:28:32.183Z,4.23
2018-04-23T15:31:00.494Z,3.43
2018-04-23T15:33:28.058Z,6.37
2018-04-23T15:35:58.930Z,2.90
2018-04-23T15:38:26.508Z,3.80
2018-04-23T15:40:54.834Z,5.30
2018-04-23T15:43:22.400Z,3.13
2018-04-23T15:45:49.945Z,2.93
2018-04-23T15:48:17.519Z,2.60
2018-04-23T15:50:49.319Z,2.50
2018-04-23T15:53:17.740Z,3.67
2018-04-23T15:55:48.493Z,2.53
2018-04-23T15:58:16.148Z,2.87
2018-04-23T16:00:43.711Z,2.07
2018-04-23T16:03:11.307Z,2.43
2018-04-23T16:05:38.855Z,2.67
2018-04-23T16:08:06.419Z,1.67
2018-04-23T16:10:34.670Z,1.73
2018-04-23T16:13:05.448Z,1.63
2018-04-23T16:24:13.305Z,2.37
2018-04-23T16:26:40.881Z,1.90
2018-04-23T16:29:12.150Z,2.20
2018-04-23T16:31:39.713Z,3.40
2018-04-23T16:34:07.329Z,3.33
2018-04-23T16:36:34.946Z,0.90
2018-04-23T16:39:02.554Z,1.10
2018-04-23T16:41:30.153Z,1.23
2018-04-23T16:43:59.346Z,2.57
2018-04-23T16:46:29.475Z,1.30
2018-04-23T17:01:55.339Z,1.37
2018-04-23T17:04:22.930Z,2.20
2018-04-23T17:06:51.264Z,2.47
2018-04-23T17:09:18.872Z,3.13
2018-04-23T17:11:46.455Z,0.90
2018-04-23T17:14:14.420Z,1.60
2018-04-23T17:16:42.009Z,2.43
2018-04-23T17:19:09.623Z,1.20
2018-04-23T19:14:18.680Z,3.83
2018-04-23T19:16:47.216Z,3.00
2018-04-23T19:27:54.320Z,5.33
2018-04-23T19:30:25.162Z,2.87
2018-04-23T19:32:52.783Z,2.83
2018-04-23T19:35:20.398Z,1.90
2018-04-23T19:37:48.920Z,2.50
2018-04-23T19:40:16.542Z,4.63
2018-04-23T19:42:44.155Z,2.00
2018-04-23T19:45:11.808Z,4.20
2018-04-23T19:47:40.202Z,4.37
2018-04-23T19:50:07.829Z,2.00
2018-04-23T19:52:42.106Z,2.67
2018-04-23T19:55:09.709Z,3.40
2018-04-23T19:57:37.681Z,3.50
2018-04-23T20:18:47.470Z,3.30
2018-04-23T20:21:15.065Z,2.20
2018-04-23T20:23:42.645Z,2.13
2018-04-23T20:26:13.474Z,4.43
2018-04-23T20:28:41.070Z,2.87
2018-04-23T20:31:08.676Z,1.83
2018-04-23T20:33:36.257Z,4.30
2018-04-23T20:36:03.820Z,1.50
2018-04-23T20:38:31.381Z,2.20
2018-04-23T20:40:58.942Z,1.37
2018-04-23T20:43:26.495Z,2.10
2018-04-23T20:45:54.059Z,3.20
2018-04-23T20:48:22.325Z,3.07
2018-04-23T20:50:52.969Z,1.50
2018-04-23T20:53:20.546Z,2.60
2018-04-23T20:55:48.096Z,3.73
2018-04-23T20:58:15.653Z,1.83
2018-04-23T21:00:43.203Z,3.10
2018-04-23T21:03:10.795Z,2.67
2018-04-23T21:05:38.361Z,3.37
2018-04-23T21:08:10.050Z,2.30
2018-04-23T21:10:37.607Z,5.80
2018-04-23T21:16:00.874Z,3.50
2018-04-23T21:18:28.433Z,3.43
2018-04-23T21:20:55.988Z,1.43
2018-04-23T21:23:24.288Z,1.80
2018-04-23T21:25:54.974Z,4.23
2018-04-23T21:28:22.458Z,2.03
2018-04-23T21:30:49.990Z,3.13
2018-04-23T21:33:17.534Z,2.97
2018-04-23T21:35:45.093Z,2.77
2018-04-23T21:38:12.635Z,4.30
2018-04-23T21:40:40.160Z,2.47
2018-04-23T21:43:07.680Z,3.97
2018-04-23T21:45:35.199Z,3.20
2018-04-23T21:48:02.726Z,3.00
2018-04-23T21:50:31.030Z,5.37
2018-04-23T21:52:58.637Z,4.83
2018-04-23T21:55:31.966Z,2.57
2018-04-23T21:57:59.630Z,2.40
2018-04-23T22:00:27.165Z,4.57
2018-04-23T22:02:54.715Z,4.10
2018-04-23T22:05:22.283Z,1.97
2018-04-23T22:07:49.807Z,4.40
2018-04-23T22:10:17.349Z,2.27
2018-04-23T22:12:44.905Z,4.30
2018-04-23T22:26:59.449Z,3.57
2018-04-23T22:29:26.984Z,2.57
2018-04-23T22:31:55.326Z,1.87
2018-04-23T22:34:22.848Z,3.83
2018-04-23T22:36:50.389Z,1.90
2018-04-23T22:39:17.941Z,2.23
2018-04-23T22:41:45.467Z,3.07
2018-04-23T22:44:13.013Z,1.70
2018-04-23T22:46:40.565Z,6.43
2018-04-23T22:49:08.124Z,2.93
2018-04-23T22:51:35.667Z,2.60
2018-04-23T22:54:03.194Z,2.20
2018-04-23T22:56:33.841Z,2.63
2018-04-23T22:59:01.366Z,3.20
2018-04-23T23:01:28.885Z,3.67
2018-04-23T23:03:56.421Z,3.77
2018-04-23T23:06:23.973Z,1.90
2018-04-23T23:08:51.504Z,5.23
2018-04-23T23:11:19.038Z,4.73
2018-04-23T23:19:35.166Z,2.40
2018-04-23T23:22:16.904Z,2.60
2018-04-23T23:24:44.461Z,2.57
2018-04-23T23:27:16.349Z,4.70
2018-04-23T23:29:43.898Z,5.00
2018-04-23T23:32:11.456Z,2.90
2018-04-23T23:34:38.990Z,3.70
2018-04-23T23:37:06.523Z,4.20
2018-04-23T23:39:34.073Z,5.83
2018-04-23T23:42:01.603Z,5.53
2018-04-23T23:44:29.131Z,4.67
2018-04-23T23:46:56.661Z,2.93
2018-04-23T23:49:24.260Z,2.30
2018-04-23T23:51:51.794Z,3.00
2018-04-23T23:54:22.492Z,3.77
2018-04-23T23:56:50.026Z,4.37
2018-04-23T23:59:18.115Z,5.97
